sensor_id;sensor_type;location;lat;lon;timestamp;pressure;altitude;pressure_sealevel;temperature;humidity
42169;BME280;27838;43.858;25.974;2022-07-29T00:01:02;101079.78;;;27.47;58.50
42169;BME280;27838;43.858;25.974;2022-07-29T00:03:28;101078.38;;;27.42;58.88
42169;BME280;27838;43.858;25.974;2022-07-29T00:05:55;101074.34;;;27.35;59.21
42169;BME280;27838;43.858;25.974;2022-07-29T00:08:22;101081.72;;;27.31;59.22
42169;BME280;27838;43.858;25.974;2022-07-29T00:10:48;101081.25;;;27.24;58.95
42169;BME280;27838;43.858;25.974;2022-07-29T00:13:15;101091.28;;;27.21;58.54
42169;BME280;27838;43.858;25.974;2022-07-29T00:15:41;101092.31;;;27.18;58.45
42169;BME280;27838;43.858;25.974;2022-07-29T00:18:08;101096.84;;;27.18;58.53
42169;BME280;27838;43.858;25.974;2022-07-29T00:20:34;101090.72;;;27.16;58.75
42169;BME280;27838;43.858;25.974;2022-07-29T00:23:01;101083.81;;;27.11;58.05
42169;BME280;27838;43.858;25.974;2022-07-29T00:25:27;101092.59;;;27.13;57.62
42169;BME280;27838;43.858;25.974;2022-07-29T00:27:54;101096.25;;;27.12;57.85
42169;BME280;27838;43.858;25.974;2022-07-29T00:30:20;101093.78;;;27.09;58.19
42169;BME280;27838;43.858;25.974;2022-07-29T00:32:47;101093.13;;;27.06;58.33
42169;BME280;27838;43.858;25.974;2022-07-29T00:35:13;101093.50;;;27.00;57.97
42169;BME280;27838;43.858;25.974;2022-07-29T00:37:58;101093.88;;;26.93;58.52
42169;BME280;27838;43.858;25.974;2022-07-29T00:40:24;101090.84;;;26.85;57.99
42169;BME280;27838;43.858;25.974;2022-07-29T00:42:52;101097.44;;;26.80;58.05
42169;BME280;27838;43.858;25.974;2022-07-29T00:45:19;101089.09;;;26.70;57.72
42169;BME280;27838;43.858;25.974;2022-07-29T00:47:47;101083.19;;;26.65;57.09
42169;BME280;27838;43.858;25.974;2022-07-29T00:50:14;101090.25;;;26.66;56.72
42169;BME280;27838;43.858;25.974;2022-07-29T00:52:41;101089.50;;;26.64;56.77
42169;BME280;27838;43.858;25.974;2022-07-29T00:55:13;101084.41;;;26.59;56.19
42169;BME280;27838;43.858;25.974;2022-07-29T00:57:42;101090.63;;;26.60;55.64
42169;BME280;27838;43.858;25.974;2022-07-29T01:00:20;101084.31;;;26.61;55.67
42169;BME280;27838;43.858;25.974;2022-07-29T01:02:48;101088.91;;;26.59;56.38
42169;BME280;27838;43.858;25.974;2022-07-29T01:05:17;101083.06;;;26.52;57.16
42169;BME280;27838;43.858;25.974;2022-07-29T01:07:46;101084.03;;;26.51;57.12
42169;BME280;27838;43.858;25.974;2022-07-29T01:10:15;101086.88;;;26.48;57.45
42169;BME280;27838;43.858;25.974;2022-07-29T01:12:43;101086.97;;;26.46;57.31
42169;BME280;27838;43.858;25.974;2022-07-29T01:15:10;101081.81;;;26.43;57.40
42169;BME280;27838;43.858;25.974;2022-07-29T01:23:24;101083.41;;;26.31;56.97
42169;BME280;27838;43.858;25.974;2022-07-29T01:32:05;101067.00;;;26.23;56.58
42169;BME280;27838;43.858;25.974;2022-07-29T01:34:41;101077.03;;;26.19;56.88
42169;BME280;27838;43.858;25.974;2022-07-29T01:37:18;101070.50;;;26.09;57.07
42169;BME280;27838;43.858;25.974;2022-07-29T01:39:49;101074.69;;;25.99;56.97
42169;BME280;27838;43.858;25.974;2022-07-29T01:45:18;101069.44;;;25.81;57.14
42169;BME280;27838;43.858;25.974;2022-07-29T01:48:05;101073.41;;;25.74;57.34
42169;BME280;27838;43.858;25.974;2022-07-29T01:50:48;101078.06;;;25.71;56.94
42169;BME280;27838;43.858;25.974;2022-07-29T01:53:25;101074.34;;;25.73;56.63
42169;BME280;27838;43.858;25.974;2022-07-29T01:55:55;101075.91;;;25.77;56.24
42169;BME280;27838;43.858;25.974;2022-07-29T01:58:24;101081.81;;;25.82;55.62
42169;BME280;27838;43.858;25.974;2022-07-29T02:00:52;101074.59;;;25.85;55.56
42169;BME280;27838;43.858;25.974;2022-07-29T02:03:21;101068.47;;;25.82;55.06
42169;BME280;27838;43.858;25.974;2022-07-29T02:05:49;101073.03;;;25.80;55.11
42169;BME280;27838;43.858;25.974;2022-07-29T02:08:18;101071.75;;;25.72;55.17
42169;BME280;27838;43.858;25.974;2022-07-29T02:10:47;101068.25;;;25.71;55.00
42169;BME280;27838;43.858;25.974;2022-07-29T02:13:16;101072.66;;;25.72;55.13
42169;BME280;27838;43.858;25.974;2022-07-29T02:15:44;101069.31;;;25.69;55.18
42169;BME280;27838;43.858;25.974;2022-07-29T02:18:15;101067.47;;;25.69;55.30
42169;BME280;27838;43.858;25.974;2022-07-29T02:20:48;101061.28;;;25.69;55.43
42169;BME280;27838;43.858;25.974;2022-07-29T02:23:23;101065.75;;;25.68;55.85
42169;BME280;27838;43.858;25.974;2022-07-29T02:25:53;101067.81;;;25.63;55.82
42169;BME280;27838;43.858;25.974;2022-07-29T02:28:23;101075.31;;;25.56;56.08
42169;BME280;27838;43.858;25.974;2022-07-29T02:30:52;101068.44;;;25.52;56.47
42169;BME280;27838;43.858;25.974;2022-07-29T02:33:20;101059.94;;;25.46;56.58
42169;BME280;27838;43.858;25.974;2022-07-29T02:35:48;101067.16;;;25.43;56.73
42169;BME280;27838;43.858;25.974;2022-07-29T02:38:16;101066.47;;;25.40;56.79
42169;BME280;27838;43.858;25.974;2022-07-29T02:41:11;101067.69;;;25.34;57.05
42169;BME280;27838;43.858;25.974;2022-07-29T02:43:39;101066.84;;;25.34;57.48
42169;BME280;27838;43.858;25.974;2022-07-29T02:46:12;101062.38;;;25.34;57.45
42169;BME280;27838;43.858;25.974;2022-07-29T02:48:46;101067.41;;;25.39;57.39
42169;BME280;27838;43.858;25.974;2022-07-29T02:51:41;101075.34;;;25.40;57.69
42169;BME280;27838;43.858;25.974;2022-07-29T02:54:10;101082.31;;;25.43;57.89
42169;BME280;27838;43.858;25.974;2022-07-29T02:56:38;101085.06;;;25.41;58.00
42169;BME280;27838;43.858;25.974;2022-07-29T02:59:10;101085.06;;;25.41;58.43
42169;BME280;27838;43.858;25.974;2022-07-29T03:01:40;101086.97;;;25.39;58.37
42169;BME280;27838;43.858;25.974;2022-07-29T03:04:09;101084.31;;;25.39;58.81
42169;BME280;27838;43.858;25.974;2022-07-29T03:06:38;101084.31;;;25.39;58.81
42169;BME280;27838;43.858;25.974;2022-07-29T03:09:07;101092.31;;;25.39;58.83
42169;BME280;27838;43.858;25.974;2022-07-29T03:11:34;101086.97;;;25.39;58.95
42169;BME280;27838;43.858;25.974;2022-07-29T03:14:02;101098.59;;;25.38;58.85
42169;BME280;27838;43.858;25.974;2022-07-29T03:16:29;101096.88;;;25.37;58.70
42169;BME280;27838;43.858;25.974;2022-07-29T03:18:56;101096.97;;;25.36;58.55
42169;BME280;27838;43.858;25.974;2022-07-29T03:21:22;101097.81;;;25.36;58.19
42169;BME280;27838;43.858;25.974;2022-07-29T03:23:49;101098.75;;;25.35;58.29
42169;BME280;27838;43.858;25.974;2022-07-29T03:26:16;101106.66;;;25.37;58.06
42169;BME280;27838;43.858;25.974;2022-07-29T03:28:43;101105.72;;;25.38;57.85
42169;BME280;27838;43.858;25.974;2022-07-29T03:31:10;101102.97;;;25.39;57.97
42169;BME280;27838;43.858;25.974;2022-07-29T03:33:36;101107.63;;;25.36;57.93
42169;BME280;27838;43.858;25.974;2022-07-29T03:36:03;101110.38;;;25.34;57.56
42169;BME280;27838;43.858;25.974;2022-07-29T03:38:33;101107.72;;;25.34;57.19
42169;BME280;27838;43.858;25.974;2022-07-29T03:41:04;101107.72;;;25.34;56.87
42169;BME280;27838;43.858;25.974;2022-07-29T03:43:34;101112.09;;;25.35;56.31
42169;BME280;27838;43.858;25.974;2022-07-29T03:46:04;101105.66;;;25.39;55.92
42169;BME280;27838;43.858;25.974;2022-07-29T03:48:35;101100.41;;;25.38;55.62
42169;BME280;27838;43.858;25.974;2022-07-29T03:51:03;101100.47;;;25.36;55.05
42169;BME280;27838;43.858;25.974;2022-07-29T03:53:29;101104.69;;;25.40;54.51
42169;BME280;27838;43.858;25.974;2022-07-29T03:55:59;101108.16;;;25.42;54.14
42169;BME280;27838;43.858;25.974;2022-07-29T03:58:27;101106.41;;;25.41;54.24
42169;BME280;27838;43.858;25.974;2022-07-29T04:00:54;101115.19;;;25.43;54.32
42169;BME280;27838;43.858;25.974;2022-07-29T04:03:21;101110.53;;;25.47;54.16
42169;BME280;27838;43.858;25.974;2022-07-29T04:06:03;101120.69;;;25.56;53.87
42169;BME280;27838;43.858;25.974;2022-07-29T04:08:31;101116.22;;;25.57;54.24
42169;BME280;27838;43.858;25.974;2022-07-29T04:10:59;101122.66;;;25.53;54.53
42169;BME280;27838;43.858;25.974;2022-07-29T04:13:25;101118.31;;;25.52;54.56
42169;BME280;27838;43.858;25.974;2022-07-29T04:15:52;101114.06;;;25.48;55.00
42169;BME280;27838;43.858;25.974;2022-07-29T04:18:18;101112.44;;;25.45;55.28
42169;BME280;27838;43.858;25.974;2022-07-29T04:20:45;101115.19;;;25.43;55.52
42169;BME280;27838;43.858;25.974;2022-07-29T04:23:11;101127.25;;;25.51;55.78
42169;BME280;27838;43.858;25.974;2022-07-29T04:25:39;101125.16;;;25.56;55.67
42169;BME280;27838;43.858;25.974;2022-07-29T04:28:06;101127.22;;;25.67;55.04
42169;BME280;27838;43.858;25.974;2022-07-29T04:30:34;101125.00;;;25.75;54.73
42169;BME280;27838;43.858;25.974;2022-07-29T04:33:02;101120.16;;;25.81;54.74
42169;BME280;27838;43.858;25.974;2022-07-29T04:35:30;101133.25;;;25.86;54.75
42169;BME280;27838;43.858;25.974;2022-07-29T04:37:57;101135.50;;;25.94;54.64
42169;BME280;27838;43.858;25.974;2022-07-29T04:40:23;101135.25;;;25.98;54.63
42169;BME280;27838;43.858;25.974;2022-07-29T04:42:50;101129.69;;;26.02;54.37
42169;BME280;27838;43.858;25.974;2022-07-29T04:45:16;101138.31;;;26.07;54.70
42169;BME280;27838;43.858;25.974;2022-07-29T04:47:43;101136.31;;;26.10;54.58
42169;BME280;27838;43.858;25.974;2022-07-29T04:50:10;101133.28;;;26.16;54.56
42169;BME280;27838;43.858;25.974;2022-07-29T04:52:37;101125.97;;;26.20;53.75
42169;BME280;27838;43.858;25.974;2022-07-29T04:55:04;101132.91;;;26.23;53.76
42169;BME280;27838;43.858;25.974;2022-07-29T04:57:31;101138.84;;;26.28;53.63
42169;BME280;27838;43.858;25.974;2022-07-29T04:59:58;101140.59;;;26.29;53.76
42169;BME280;27838;43.858;25.974;2022-07-29T05:02:25;101142.88;;;26.35;53.22
42169;BME280;27838;43.858;25.974;2022-07-29T05:04:51;101141.75;;;26.39;53.29
42169;BME280;27838;43.858;25.974;2022-07-29T05:07:19;101146.72;;;26.45;52.65
42169;BME280;27838;43.858;25.974;2022-07-29T05:09:46;101149.03;;;26.51;52.40
42169;BME280;27838;43.858;25.974;2022-07-29T05:12:12;101142.53;;;26.55;52.10
42169;BME280;27838;43.858;25.974;2022-07-29T05:14:39;101145.78;;;26.61;51.75
42169;BME280;27838;43.858;25.974;2022-07-29T05:17:05;101142.59;;;26.70;51.54
42169;BME280;27838;43.858;25.974;2022-07-29T05:19:32;101144.03;;;26.75;51.08
42169;BME280;27838;43.858;25.974;2022-07-29T05:21:58;101137.81;;;26.75;50.91
42169;BME280;27838;43.858;25.974;2022-07-29T05:24:25;101140.97;;;26.82;50.84
42169;BME280;27838;43.858;25.974;2022-07-29T05:26:52;101146.03;;;26.86;50.63
42169;BME280;27838;43.858;25.974;2022-07-29T05:29:18;101151.22;;;26.89;50.77
42169;BME280;27838;43.858;25.974;2022-07-29T05:31:45;101151.00;;;26.92;50.58
42169;BME280;27838;43.858;25.974;2022-07-29T05:34:11;101154.25;;;26.98;50.99
42169;BME280;27838;43.858;25.974;2022-07-29T05:36:38;101150.63;;;26.99;51.14
42169;BME280;27838;43.858;25.974;2022-07-29T05:39:06;101163.59;;;27.05;51.31
42169;BME280;27838;43.858;25.974;2022-07-29T05:41:32;101155.22;;;27.11;51.09
42169;BME280;27838;43.858;25.974;2022-07-29T05:43:59;101145.84;;;27.18;50.70
42169;BME280;27838;43.858;25.974;2022-07-29T05:46:25;101147.25;;;27.24;50.40
42169;BME280;27838;43.858;25.974;2022-07-29T05:48:52;101146.81;;;27.31;50.14
42169;BME280;27838;43.858;25.974;2022-07-29T05:51:19;101150.06;;;27.37;50.23
42169;BME280;27838;43.858;25.974;2022-07-29T05:53:45;101142.69;;;27.40;50.38
42169;BME280;27838;43.858;25.974;2022-07-29T05:56:12;101153.88;;;27.47;50.44
42169;BME280;27838;43.858;25.974;2022-07-29T05:58:38;101149.75;;;27.56;49.77
42169;BME280;27838;43.858;25.974;2022-07-29T06:01:05;101149.53;;;27.59;49.83
42169;BME280;27838;43.858;25.974;2022-07-29T06:03:31;101155.34;;;27.65;49.64
42169;BME280;27838;43.858;25.974;2022-07-29T06:05:58;101157.72;;;27.70;49.90
42169;BME280;27838;43.858;25.974;2022-07-29T06:08:25;101155.59;;;27.75;49.47
42169;BME280;27838;43.858;25.974;2022-07-29T06:10:51;101151.09;;;27.76;49.57
42169;BME280;27838;43.858;25.974;2022-07-29T06:13:18;101155.28;;;27.80;49.01
42169;BME280;27838;43.858;25.974;2022-07-29T06:15:44;101152.22;;;27.86;48.92
42169;BME280;27838;43.858;25.974;2022-07-29T06:18:12;101151.81;;;27.92;48.99
42169;BME280;27838;43.858;25.974;2022-07-29T06:20:38;101144.34;;;27.97;49.01
42169;BME280;27838;43.858;25.974;2022-07-29T06:23:05;101140.53;;;28.01;48.71
42169;BME280;27838;43.858;25.974;2022-07-29T06:25:32;101137.31;;;28.09;48.29
42169;BME280;27838;43.858;25.974;2022-07-29T06:28:00;101150.06;;;28.18;47.78
42169;BME280;27838;43.858;25.974;2022-07-29T06:30:27;101146.25;;;28.22;46.77
42169;BME280;27838;43.858;25.974;2022-07-29T06:32:53;101148.59;;;28.27;46.67
42169;BME280;27838;43.858;25.974;2022-07-29T06:35:20;101146.56;;;28.31;46.14
42169;BME280;27838;43.858;25.974;2022-07-29T06:37:47;101147.00;;;28.37;45.90
42169;BME280;27838;43.858;25.974;2022-07-29T06:40:14;101145.72;;;28.43;45.98
42169;BME280;27838;43.858;25.974;2022-07-29T06:42:58;101148.00;;;28.49;46.21
42169;BME280;27838;43.858;25.974;2022-07-29T06:45:25;101147.50;;;28.57;45.65
42169;BME280;27838;43.858;25.974;2022-07-29T06:47:52;101154.28;;;28.62;45.96
42169;BME280;27838;43.858;25.974;2022-07-29T06:50:18;101154.69;;;28.69;45.65
42169;BME280;27838;43.858;25.974;2022-07-29T06:52:45;101154.38;;;28.74;44.65
42169;BME280;27838;43.858;25.974;2022-07-29T06:55:11;101141.50;;;28.79;43.07
42169;BME280;27838;43.858;25.974;2022-07-29T06:57:38;101151.66;;;28.87;42.98
42169;BME280;27838;43.858;25.974;2022-07-29T07:00:05;101143.22;;;28.93;43.34
42169;BME280;27838;43.858;25.974;2022-07-29T07:02:32;101149.84;;;29.00;42.84
42169;BME280;27838;43.858;25.974;2022-07-29T07:04:59;101143.19;;;29.06;42.91
42169;BME280;27838;43.858;25.974;2022-07-29T07:07:25;101152.41;;;29.14;43.13
42169;BME280;27838;43.858;25.974;2022-07-29T07:09:52;101153.06;;;29.18;42.34
42169;BME280;27838;43.858;25.974;2022-07-29T07:12:18;101139.84;;;29.28;40.57
42169;BME280;27838;43.858;25.974;2022-07-29T07:14:45;101142.09;;;29.34;39.77
42169;BME280;27838;43.858;25.974;2022-07-29T07:17:11;101133.91;;;29.35;39.81
42169;BME280;27838;43.858;25.974;2022-07-29T07:19:38;101144.84;;;29.45;40.13
42169;BME280;27838;43.858;25.974;2022-07-29T07:22:04;101140.00;;;29.50;40.24
42169;BME280;27838;43.858;25.974;2022-07-29T07:24:31;101141.16;;;29.59;40.48
42169;BME280;27838;43.858;25.974;2022-07-29T07:26:57;101138.88;;;29.66;40.84
42169;BME280;27838;43.858;25.974;2022-07-29T07:29:24;101142.81;;;29.73;40.52
42169;BME280;27838;43.858;25.974;2022-07-29T07:31:50;101139.69;;;29.79;39.16
42169;BME280;27838;43.858;25.974;2022-07-29T07:34:17;101131.19;;;29.85;38.08
42169;BME280;27838;43.858;25.974;2022-07-29T07:36:44;101129.00;;;29.90;38.01
42169;BME280;27838;43.858;25.974;2022-07-29T07:39:10;101125.72;;;29.98;38.21
42169;BME280;27838;43.858;25.974;2022-07-29T07:41:37;101120.75;;;30.05;39.04
42169;BME280;27838;43.858;25.974;2022-07-29T07:44:04;101127.38;;;30.12;38.34
42169;BME280;27838;43.858;25.974;2022-07-29T07:46:31;101121.75;;;30.15;35.91
42169;BME280;27838;43.858;25.974;2022-07-29T07:48:57;101123.97;;;30.21;35.67
42169;BME280;27838;43.858;25.974;2022-07-29T07:51:24;101129.84;;;30.26;36.03
42169;BME280;27838;43.858;25.974;2022-07-29T07:53:51;101122.16;;;30.33;35.81
42169;BME280;27838;43.858;25.974;2022-07-29T07:56:17;101125.28;;;30.40;35.29
42169;BME280;27838;43.858;25.974;2022-07-29T07:58:44;101122.84;;;30.48;35.58
42169;BME280;27838;43.858;25.974;2022-07-29T08:01:11;101125.78;;;30.56;35.06
42169;BME280;27838;43.858;25.974;2022-07-29T08:03:38;101108.56;;;30.59;34.38
42169;BME280;27838;43.858;25.974;2022-07-29T08:06:05;101118.81;;;30.65;34.59
42169;BME280;27838;43.858;25.974;2022-07-29T08:08:32;101113.81;;;30.72;34.58
42169;BME280;27838;43.858;25.974;2022-07-29T08:10:58;101118.50;;;30.81;34.84
42169;BME280;27838;43.858;25.974;2022-07-29T08:13:27;101116.75;;;30.80;35.36
42169;BME280;27838;43.858;25.974;2022-07-29T08:15:55;101116.28;;;30.86;33.67
42169;BME280;27838;43.858;25.974;2022-07-29T08:18:29;101110.16;;;30.84;32.22
42169;BME280;27838;43.858;25.974;2022-07-29T08:20:57;101118.97;;;30.86;32.77
42169;BME280;27838;43.858;25.974;2022-07-29T08:23:24;101108.69;;;30.91;32.16
42169;BME280;27838;43.858;25.974;2022-07-29T08:25:52;101109.34;;;30.95;32.22
42169;BME280;27838;43.858;25.974;2022-07-29T08:28:18;101112.38;;;31.01;32.62
42169;BME280;27838;43.858;25.974;2022-07-29T08:30:45;101109.22;;;31.08;32.44
42169;BME280;27838;43.858;25.974;2022-07-29T08:33:12;101107.59;;;31.16;32.19
42169;BME280;27838;43.858;25.974;2022-07-29T08:35:39;101107.09;;;31.22;32.75
42169;BME280;27838;43.858;25.974;2022-07-29T08:38:06;101106.38;;;31.32;32.04
42169;BME280;27838;43.858;25.974;2022-07-29T08:40:32;101106.97;;;31.35;32.64
42169;BME280;27838;43.858;25.974;2022-07-29T08:43:07;101106.56;;;31.40;31.94
42169;BME280;27838;43.858;25.974;2022-07-29T08:45:46;101096.66;;;31.52;31.63
42169;BME280;27838;43.858;25.974;2022-07-29T08:48:14;101091.03;;;31.55;32.02
42169;BME280;27838;43.858;25.974;2022-07-29T08:50:43;101095.63;;;31.64;32.11
42169;BME280;27838;43.858;25.974;2022-07-29T08:53:11;101089.88;;;31.69;31.75
42169;BME280;27838;43.858;25.974;2022-07-29T08:55:47;101085.06;;;31.72;31.56
42169;BME280;27838;43.858;25.974;2022-07-29T08:58:15;101084.06;;;31.73;31.81
42169;BME280;27838;43.858;25.974;2022-07-29T09:00:45;101088.13;;;31.79;32.42
42169;BME280;27838;43.858;25.974;2022-07-29T09:03:15;101077.69;;;31.86;32.26
42169;BME280;27838;43.858;25.974;2022-07-29T09:05:47;101068.47;;;31.88;31.77
42169;BME280;27838;43.858;25.974;2022-07-29T09:08:14;101069.78;;;31.94;31.90
42169;BME280;27838;43.858;25.974;2022-07-29T09:10:42;101058.75;;;31.97;31.22
42169;BME280;27838;43.858;25.974;2022-07-29T09:13:09;101064.81;;;32.10;31.35
42169;BME280;27838;43.858;25.974;2022-07-29T09:15:35;101072.25;;;32.18;31.33
42169;BME280;27838;43.858;25.974;2022-07-29T09:18:02;101078.81;;;32.25;30.25
42169;BME280;27838;43.858;25.974;2022-07-29T09:20:29;101072.19;;;32.29;30.41
42169;BME280;27838;43.858;25.974;2022-07-29T09:23:16;101059.28;;;32.33;30.18
42169;BME280;27838;43.858;25.974;2022-07-29T09:25:42;101063.09;;;32.30;30.25
42169;BME280;27838;43.858;25.974;2022-07-29T09:28:13;101060.53;;;32.29;30.38
42169;BME280;27838;43.858;25.974;2022-07-29T09:30:55;101070.78;;;32.35;30.87
42169;BME280;27838;43.858;25.974;2022-07-29T09:33:24;101065.28;;;32.36;30.21
42169;BME280;27838;43.858;25.974;2022-07-29T09:36:04;101073.94;;;32.40;30.31
42169;BME280;27838;43.858;25.974;2022-07-29T09:38:31;101065.56;;;32.43;30.09
42169;BME280;27838;43.858;25.974;2022-07-29T09:41:02;101069.47;;;32.50;30.09
42169;BME280;27838;43.858;25.974;2022-07-29T09:43:29;101050.00;;;32.56;30.27
42169;BME280;27838;43.858;25.974;2022-07-29T09:45:56;101069.38;;;32.62;29.81
42169;BME280;27838;43.858;25.974;2022-07-29T09:48:35;101069.56;;;32.70;29.94
42169;BME280;27838;43.858;25.974;2022-07-29T09:51:02;101062.50;;;32.79;29.38
42169;BME280;27838;43.858;25.974;2022-07-29T09:53:36;101058.41;;;32.84;29.08
42169;BME280;27838;43.858;25.974;2022-07-29T09:56:05;101051.00;;;32.86;29.24
42169;BME280;27838;43.858;25.974;2022-07-29T09:58:32;101050.03;;;32.87;29.47
42169;BME280;27838;43.858;25.974;2022-07-29T10:00:59;101045.34;;;32.89;29.33
42169;BME280;27838;43.858;25.974;2022-07-29T10:03:26;101048.75;;;32.91;29.33
42169;BME280;27838;43.858;25.974;2022-07-29T10:08:31;101044.78;;;32.96;29.36
42169;BME280;27838;43.858;25.974;2022-07-29T10:11:18;101041.09;;;32.97;29.81
42169;BME280;27838;43.858;25.974;2022-07-29T10:13:47;101035.16;;;33.03;28.88
42169;BME280;27838;43.858;25.974;2022-07-29T10:16:15;101032.72;;;33.09;28.76
42169;BME280;27838;43.858;25.974;2022-07-29T10:18:43;101042.19;;;33.15;28.00
42169;BME280;27838;43.858;25.974;2022-07-29T10:21:12;101037.47;;;33.17;27.96
42169;BME280;27838;43.858;25.974;2022-07-29T10:23:39;101030.25;;;33.27;28.36
42169;BME280;27838;43.858;25.974;2022-07-29T10:26:07;101030.09;;;33.39;27.64
42169;BME280;27838;43.858;25.974;2022-07-29T10:28:34;101034.06;;;33.44;28.01
42169;BME280;27838;43.858;25.974;2022-07-29T10:31:05;101021.69;;;33.52;27.55
42169;BME280;27838;43.858;25.974;2022-07-29T10:33:46;101029.09;;;33.49;27.10
42169;BME280;27838;43.858;25.974;2022-07-29T10:44:04;101006.50;;;33.70;27.89
42169;BME280;27838;43.858;25.974;2022-07-29T10:46:36;101007.06;;;33.74;27.75
42169;BME280;27838;43.858;25.974;2022-07-29T10:49:10;101004.94;;;33.77;26.89
42169;BME280;27838;43.858;25.974;2022-07-29T10:51:58;101005.63;;;33.79;27.29
42169;BME280;27838;43.858;25.974;2022-07-29T10:54:43;101005.50;;;33.81;27.59
42169;BME280;27838;43.858;25.974;2022-07-29T10:59:52;100992.81;;;33.91;27.74
42169;BME280;27838;43.858;25.974;2022-07-29T11:05:13;100990.66;;;34.04;30.27
42169;BME280;27838;43.858;25.974;2022-07-29T11:10:43;100982.22;;;34.17;28.55
42169;BME280;27838;43.858;25.974;2022-07-29T11:13:09;100978.22;;;34.21;28.21
42169;BME280;27838;43.858;25.974;2022-07-29T11:18:20;100965.84;;;34.29;29.07
42169;BME280;27838;43.858;25.974;2022-07-29T11:20:48;100962.13;;;34.30;28.51
42169;BME280;27838;43.858;25.974;2022-07-29T11:23:31;100961.97;;;34.31;28.86
42169;BME280;27838;43.858;25.974;2022-07-29T11:26:17;100959.69;;;34.36;28.55
42169;BME280;27838;43.858;25.974;2022-07-29T11:34:49;100950.97;;;34.42;27.90
42169;BME280;27838;43.858;25.974;2022-07-29T11:45:00;100950.75;;;34.54;28.51
42169;BME280;27838;43.858;25.974;2022-07-29T11:47:28;100949.75;;;34.55;28.51
42169;BME280;27838;43.858;25.974;2022-07-29T11:49:56;100945.03;;;34.57;28.68
42169;BME280;27838;43.858;25.974;2022-07-29T11:52:24;100939.34;;;34.60;28.59
42169;BME280;27838;43.858;25.974;2022-07-29T11:55:01;100941.28;;;34.68;28.81
42169;BME280;27838;43.858;25.974;2022-07-29T11:57:28;100940.69;;;34.74;28.38
42169;BME280;27838;43.858;25.974;2022-07-29T11:59:57;100931.56;;;34.75;28.40
42169;BME280;27838;43.858;25.974;2022-07-29T12:02:24;100926.59;;;34.70;28.23
42169;BME280;27838;43.858;25.974;2022-07-29T12:04:55;100928.00;;;34.74;28.80
42169;BME280;27838;43.858;25.974;2022-07-29T12:07:31;100932.09;;;34.78;28.77
42169;BME280;27838;43.858;25.974;2022-07-29T12:09:58;100925.56;;;34.81;28.37
42169;BME280;27838;43.858;25.974;2022-07-29T12:12:25;100925.38;;;34.83;28.06
42169;BME280;27838;43.858;25.974;2022-07-29T12:14:52;100924.38;;;34.84;27.99
42169;BME280;27838;43.858;25.974;2022-07-29T12:17:30;100916.09;;;34.85;28.70
42169;BME280;27838;43.858;25.974;2022-07-29T12:19:58;100916.78;;;34.87;29.21
42169;BME280;27838;43.858;25.974;2022-07-29T12:22:27;100912.63;;;34.93;28.94
42169;BME280;27838;43.858;25.974;2022-07-29T12:24:55;100914.19;;;34.95;28.51
42169;BME280;27838;43.858;25.974;2022-07-29T12:27:22;100914.47;;;34.92;28.38
42169;BME280;27838;43.858;25.974;2022-07-29T12:29:59;100907.19;;;34.93;27.95
42169;BME280;27838;43.858;25.974;2022-07-29T12:32:47;100907.53;;;34.90;27.64
42169;BME280;27838;43.858;25.974;2022-07-29T12:35:18;100903.72;;;34.83;28.22
42169;BME280;27838;43.858;25.974;2022-07-29T12:37:47;100905.03;;;34.78;28.60
42169;BME280;27838;43.858;25.974;2022-07-29T12:40:16;100895.22;;;34.77;28.90
42169;BME280;27838;43.858;25.974;2022-07-29T12:43:11;100893.22;;;34.79;28.89
42169;BME280;27838;43.858;25.974;2022-07-29T12:45:39;100889.25;;;34.74;28.67
42169;BME280;27838;43.858;25.974;2022-07-29T12:48:06;100870.91;;;34.68;28.81
42169;BME280;27838;43.858;25.974;2022-07-29T12:50:36;100874.59;;;34.67;28.69
42169;BME280;27838;43.858;25.974;2022-07-29T12:53:11;100871.50;;;34.61;28.95
42169;BME280;27838;43.858;25.974;2022-07-29T12:55:43;100873.50;;;34.59;28.38
42169;BME280;27838;43.858;25.974;2022-07-29T12:58:14;100862.84;;;34.58;28.71
42169;BME280;27838;43.858;25.974;2022-07-29T13:00:41;100864.69;;;34.57;29.17
42169;BME280;27838;43.858;25.974;2022-07-29T13:03:07;100866.72;;;34.55;29.27
42169;BME280;27838;43.858;25.974;2022-07-29T13:05:44;100854.16;;;34.54;28.85
42169;BME280;27838;43.858;25.974;2022-07-29T13:08:15;100864.84;;;34.56;28.99
42169;BME280;27838;43.858;25.974;2022-07-29T13:10:43;100858.19;;;34.50;28.67
42169;BME280;27838;43.858;25.974;2022-07-29T13:13:12;100852.94;;;34.49;28.99
42169;BME280;27838;43.858;25.974;2022-07-29T13:15:44;100846.53;;;34.50;28.70
42169;BME280;27838;43.858;25.974;2022-07-29T13:18:31;100849.38;;;34.48;29.34
42169;BME280;27838;43.858;25.974;2022-07-29T13:21:11;100845.13;;;34.46;29.20
42169;BME280;27838;43.858;25.974;2022-07-29T13:23:38;100846.84;;;34.47;29.81
42169;BME280;27838;43.858;25.974;2022-07-29T13:26:09;100838.72;;;34.47;29.38
42169;BME280;27838;43.858;25.974;2022-07-29T13:28:36;100842.41;;;34.46;29.17
42169;BME280;27838;43.858;25.974;2022-07-29T13:31:03;100847.13;;;34.43;29.20
42169;BME280;27838;43.858;25.974;2022-07-29T13:33:30;100837.34;;;34.42;29.14
42169;BME280;27838;43.858;25.974;2022-07-29T13:35:57;100841.19;;;34.40;29.14
42169;BME280;27838;43.858;25.974;2022-07-29T13:38:24;100840.34;;;34.39;29.02
42169;BME280;27838;43.858;25.974;2022-07-29T13:40:50;100833.22;;;34.38;29.16